Terminal Aerodrome Forecast
Issued by NWS

Home | Current Version | Previous Version | Text Only | Print | Product List | Glossary On
Versions: 1 2 3 4 5 6 7 8 9 10 11 12 13 14 15 16 17 18
000
FTUS41 KBTV 230534
TAFRUT
TAF
KRUT 230534Z 2306/2406 34013KT P6SM OVC025
     FM231000 35013KT P6SM OVC015
     FM231500 36010KT 3SM -RA BR OVC010
     FM232300 35007KT 3SM BR OVC010
      AMD LTD TO CLD VIS AND WIND=

USA.gov is the U.S. government's official web portal to all federal, state and local government web resources and services.